createdAt,value
2022-12-08T00:01:15.816Z,6.80
2022-12-08T00:03:43.118Z,6.05
2022-12-08T00:06:40.731Z,5.33
2022-12-08T00:09:24.623Z,5.32
2022-12-08T00:11:55.580Z,4.70
2022-12-08T00:14:27.983Z,4.88
2022-12-08T00:16:54.888Z,4.65
2022-12-08T00:19:21.748Z,5.07
2022-12-08T00:21:48.507Z,5.18
2022-12-08T00:24:15.021Z,5.60
2022-12-08T00:26:41.533Z,5.80
2022-12-08T00:29:11.917Z,5.20
2022-12-08T00:31:42.570Z,5.32
2022-12-08T00:34:09.640Z,6.13
2022-12-08T00:36:36.119Z,5.18
2022-12-08T00:39:02.644Z,5.55
2022-12-08T00:41:47.757Z,5.03
2022-12-08T00:44:15.778Z,4.75
2022-12-08T00:46:42.462Z,4.80
2022-12-08T00:49:09.125Z,4.43
2022-12-08T00:51:35.812Z,4.03
2022-12-08T00:54:02.432Z,4.75
2022-12-08T00:56:29.218Z,3.70
2022-12-08T00:58:55.730Z,4.00
2022-12-08T01:01:22.729Z,3.38
2022-12-08T01:03:49.845Z,3.20
2022-12-08T01:06:16.654Z,3.50
2022-12-08T01:08:43.285Z,3.92
2022-12-08T01:11:11.638Z,3.17
2022-12-08T01:13:38.149Z,3.28
2022-12-08T01:16:04.942Z,4.00
2022-12-08T01:18:31.793Z,3.25
2022-12-08T01:21:07.729Z,3.85
2022-12-08T01:23:35.044Z,3.42
2022-12-08T01:26:03.159Z,3.45
2022-12-08T01:28:30.823Z,3.65
2022-12-08T01:30:57.830Z,3.75
2022-12-08T01:33:24.647Z,3.05
2022-12-08T01:35:51.229Z,3.13
2022-12-08T01:38:18.012Z,3.60
2022-12-08T01:40:44.691Z,3.08
2022-12-08T01:43:18.898Z,3.00
2022-12-08T01:45:45.685Z,3.20
2022-12-08T01:48:19.470Z,3.22
2022-12-08T01:50:46.905Z,2.78
2022-12-08T01:53:22.375Z,3.00
2022-12-08T01:55:51.213Z,3.20
2022-12-08T01:58:20.736Z,2.97
2022-12-08T02:00:48.659Z,3.10
2022-12-08T02:03:28.409Z,3.20
2022-12-08T02:05:55.248Z,2.83
2022-12-08T02:08:22.967Z,2.78
2022-12-08T02:10:51.102Z,3.42
2022-12-08T02:13:19.458Z,3.72
2022-12-08T02:16:04.749Z,2.50
2022-12-08T02:19:08.010Z,2.97
2022-12-08T02:21:36.619Z,2.65
2022-12-08T02:24:12.614Z,2.67
2022-12-08T02:26:54.282Z,2.92
2022-12-08T02:29:20.993Z,2.50
2022-12-08T02:32:02.632Z,2.65
2022-12-08T02:34:33.749Z,2.35
2022-12-08T02:37:19.059Z,2.50
2022-12-08T02:39:46.261Z,2.38
2022-12-08T02:42:12.793Z,2.30
2022-12-08T02:45:00.604Z,2.20
2022-12-08T02:47:28.232Z,2.45
2022-12-08T02:49:55.566Z,2.75
2022-12-08T02:52:22.223Z,2.53
2022-12-08T02:54:53.413Z,2.50
2022-12-08T02:57:29.121Z,2.47
2022-12-08T03:00:02.449Z,2.33
2022-12-08T03:02:44.457Z,2.80
2022-12-08T03:05:26.443Z,2.28
2022-12-08T03:08:10.718Z,1.88
2022-12-08T03:10:40.712Z,2.53
2022-12-08T03:13:12.883Z,2.67
2022-12-08T03:15:40.142Z,2.40
2022-12-08T03:18:08.343Z,2.13
2022-12-08T03:20:35.365Z,2.63
2022-12-08T03:23:04.989Z,4.63
2022-12-08T03:25:33.633Z,4.55
2022-12-08T03:28:00.567Z,4.07
2022-12-08T03:30:28.675Z,4.20
2022-12-08T03:32:58.618Z,4.57
2022-12-08T03:35:27.526Z,4.50
2022-12-08T03:38:02.336Z,5.50
2022-12-08T03:40:28.983Z,4.03
2022-12-08T03:42:55.463Z,4.32
2022-12-08T03:45:22.005Z,3.70
2022-12-08T03:47:48.684Z,4.13
2022-12-08T03:50:15.264Z,3.55
2022-12-08T03:52:41.768Z,3.97
2022-12-08T03:55:08.920Z,3.88
2022-12-08T03:57:35.501Z,4.03
2022-12-08T04:00:02.792Z,4.38
2022-12-08T04:02:29.761Z,4.22
2022-12-08T04:04:56.224Z,4.03
2022-12-08T04:07:22.680Z,3.88
2022-12-08T04:09:49.489Z,4.07
2022-12-08T04:12:15.966Z,3.40
2022-12-08T04:14:42.417Z,3.40
2022-12-08T04:17:09.077Z,3.78
2022-12-08T04:19:35.773Z,3.70
2022-12-08T04:22:02.245Z,3.65
2022-12-08T04:24:28.821Z,3.70
2022-12-08T04:26:55.468Z,3.33
2022-12-08T04:29:21.903Z,3.95
2022-12-08T04:31:48.641Z,4.03
2022-12-08T04:34:15.283Z,3.65
2022-12-08T04:36:41.731Z,4.43
2022-12-08T04:39:08.236Z,4.07
2022-12-08T04:41:35.016Z,4.07
2022-12-08T04:44:01.467Z,3.92
2022-12-08T04:46:27.982Z,3.88
2022-12-08T04:48:54.854Z,3.97
2022-12-08T04:51:21.398Z,3.90
2022-12-08T04:53:48.313Z,3.65
2022-12-08T04:56:15.873Z,3.60
2022-12-08T04:58:42.739Z,3.28
2022-12-08T05:01:09.257Z,3.97
2022-12-08T05:03:36.167Z,3.22
2022-12-08T05:06:03.085Z,3.83
2022-12-08T05:08:30.034Z,3.20
2022-12-08T05:11:07.197Z,2.90
2022-12-08T05:13:33.728Z,3.97
2022-12-08T05:16:07.397Z,3.35
2022-12-08T05:18:34.462Z,3.25
2022-12-08T05:21:00.963Z,3.20
2022-12-08T05:23:27.665Z,3.30
2022-12-08T05:25:54.276Z,3.30
2022-12-08T05:28:40.744Z,3.58
2022-12-08T05:31:07.682Z,3.45
2022-12-08T05:33:34.152Z,3.45
2022-12-08T05:36:00.578Z,3.67
2022-12-08T05:38:27.324Z,3.65
2022-12-08T05:40:53.787Z,3.88
2022-12-08T05:43:20.256Z,3.13
2022-12-08T05:45:47.030Z,3.85
2022-12-08T05:48:13.643Z,3.25
2022-12-08T05:50:40.229Z,4.33
2022-12-08T05:53:06.881Z,4.13
2022-12-08T05:55:33.322Z,3.55
2022-12-08T05:58:04.551Z,3.45
2022-12-08T06:00:37.058Z,4.28
2022-12-08T06:03:03.614Z,3.75
2022-12-08T06:05:32.032Z,3.50
2022-12-08T06:07:59.183Z,4.57
2022-12-08T06:10:25.704Z,3.65
2022-12-08T06:12:52.201Z,4.32
2022-12-08T06:15:18.931Z,4.68
2022-12-08T06:17:45.458Z,4.60
2022-12-08T06:20:12.128Z,3.92
2022-12-08T06:22:38.814Z,4.25
2022-12-08T06:25:08.544Z,3.40
2022-12-08T06:27:36.494Z,4.00
2022-12-08T06:30:03.569Z,4.20
2022-12-08T06:32:30.266Z,3.70
2022-12-08T06:34:56.773Z,3.80
2022-12-08T06:37:23.521Z,4.38
2022-12-08T06:39:50.024Z,3.95
2022-12-08T06:42:35.069Z,3.45
2022-12-08T06:45:01.691Z,3.80
2022-12-08T06:47:28.158Z,4.13
2022-12-08T06:49:54.816Z,3.90
2022-12-08T06:52:21.441Z,3.42
2022-12-08T06:54:47.907Z,3.58
2022-12-08T06:57:14.479Z,4.10
2022-12-08T06:59:41.053Z,3.88
2022-12-08T07:02:07.711Z,3.70
2022-12-08T07:04:34.456Z,3.80
2022-12-08T07:07:01.014Z,4.65
2022-12-08T07:09:27.657Z,3.80
2022-12-08T07:11:54.250Z,3.85
2022-12-08T07:14:24.808Z,4.90
2022-12-08T07:16:51.634Z,4.18
2022-12-08T07:19:18.886Z,3.20
2022-12-08T07:21:45.377Z,3.40
2022-12-08T07:24:11.893Z,4.60
2022-12-08T07:26:38.703Z,4.20
2022-12-08T07:29:05.276Z,4.50
2022-12-08T07:31:31.835Z,5.05
2022-12-08T07:33:59.161Z,5.22
2022-12-08T07:36:25.677Z,5.13
2022-12-08T07:38:55.483Z,4.93
2022-12-08T07:41:23.632Z,4.85
2022-12-08T07:43:50.358Z,4.55
2022-12-08T07:46:18.379Z,4.18
2022-12-08T07:48:45.309Z,3.83
2022-12-08T07:51:13.763Z,4.47
2022-12-08T07:53:42.683Z,4.47
2022-12-08T07:56:10.693Z,6.25
2022-12-08T07:58:37.282Z,4.88
2022-12-08T08:01:03.920Z,5.10
2022-12-08T08:03:30.995Z,4.53
2022-12-08T08:06:04.683Z,13.43
2022-12-08T08:08:32.002Z,4.90
2022-12-08T08:10:59.314Z,5.43
2022-12-08T08:13:25.838Z,5.97
2022-12-08T08:15:52.577Z,14.07
2022-12-08T08:18:19.141Z,5.55
2022-12-08T08:20:45.648Z,5.47
2022-12-08T08:23:12.224Z,4.85
2022-12-08T08:25:38.687Z,4.57
2022-12-08T08:28:05.370Z,4.55
2022-12-08T08:30:32.017Z,4.88
2022-12-08T08:32:58.575Z,5.90
2022-12-08T08:35:25.188Z,5.88
2022-12-08T08:37:51.709Z,5.10
2022-12-08T08:40:18.460Z,4.90
2022-12-08T08:42:45.080Z,5.00
2022-12-08T08:45:11.704Z,4.93
2022-12-08T08:47:38.194Z,5.82
2022-12-08T08:50:05.382Z,4.55
2022-12-08T08:52:32.174Z,5.03
2022-12-08T08:54:58.644Z,4.28
2022-12-08T08:57:25.996Z,4.22
2022-12-08T08:59:53.291Z,5.25
2022-12-08T09:02:20.434Z,4.10
2022-12-08T09:04:47.302Z,5.05
2022-12-08T09:07:14.405Z,4.53
2022-12-08T09:09:41.025Z,5.25
2022-12-08T09:12:08.387Z,4.93
2022-12-08T09:14:34.909Z,5.45
2022-12-08T09:17:01.506Z,6.47
2022-12-08T09:19:28.128Z,5.03
2022-12-08T09:21:54.727Z,5.60
2022-12-08T09:24:21.326Z,6.05
2022-12-08T09:26:48.468Z,5.82
2022-12-08T09:29:15.089Z,5.60
2022-12-08T09:31:42.036Z,5.65
2022-12-08T09:34:08.886Z,5.95
2022-12-08T09:36:35.567Z,5.38
2022-12-08T09:39:02.104Z,5.22
2022-12-08T09:41:40.655Z,5.10
2022-12-08T09:44:28.903Z,5.18
2022-12-08T09:46:56.216Z,5.57
2022-12-08T09:49:25.356Z,4.70
2022-12-08T09:51:51.850Z,5.15
2022-12-08T09:54:18.640Z,5.03
2022-12-08T09:56:45.178Z,5.75
2022-12-08T09:59:17.908Z,4.53
2022-12-08T10:01:44.782Z,5.28
2022-12-08T10:04:19.576Z,5.53
2022-12-08T10:07:06.400Z,5.15
2022-12-08T10:09:51.358Z,5.13
2022-12-08T10:12:21.323Z,4.20
2022-12-08T10:14:58.069Z,4.40
2022-12-08T10:17:38.300Z,4.70
2022-12-08T10:20:18.607Z,4.50
2022-12-08T10:22:46.723Z,4.00
2022-12-08T10:25:16.328Z,4.00
2022-12-08T10:27:42.833Z,4.55
2022-12-08T10:30:13.363Z,3.67
2022-12-08T10:32:41.051Z,4.22
2022-12-08T10:35:09.391Z,3.83
2022-12-08T10:37:36.083Z,4.00
2022-12-08T10:40:08.672Z,4.15
2022-12-08T10:42:41.162Z,4.28
2022-12-08T10:45:10.393Z,4.05
2022-12-08T10:47:44.825Z,8.68
2022-12-08T10:50:23.072Z,5.15
2022-12-08T10:52:59.171Z,4.25
2022-12-08T10:55:26.191Z,3.40
2022-12-08T10:57:52.750Z,3.33
2022-12-08T11:00:24.525Z,4.15
2022-12-08T11:02:55.652Z,4.32
2022-12-08T11:05:23.590Z,4.20
2022-12-08T11:07:51.821Z,4.07
2022-12-08T11:10:19.253Z,4.07
2022-12-08T11:12:45.988Z,3.85
2022-12-08T11:15:16.858Z,3.17
2022-12-08T11:17:46.051Z,4.43
2022-12-08T11:20:15.367Z,3.83
2022-12-08T11:22:42.972Z,3.70
2022-12-08T11:25:12.302Z,3.87
2022-12-08T11:27:40.668Z,3.58
2022-12-08T11:30:14.838Z,4.75
2022-12-08T11:32:45.297Z,2.80
2022-12-08T11:35:29.446Z,2.60
2022-12-08T11:38:13.542Z,3.10
2022-12-08T11:40:45.431Z,2.00
2022-12-08T11:43:16.913Z,2.30
2022-12-08T11:45:43.657Z,2.60
2022-12-08T11:48:13.264Z,2.23
2022-12-08T11:50:43.087Z,3.07
2022-12-08T11:53:18.753Z,2.40
2022-12-08T11:55:53.771Z,2.40
2022-12-08T11:58:35.152Z,2.00
2022-12-08T12:01:01.799Z,3.07
2022-12-08T12:03:34.033Z,3.67
2022-12-08T12:06:38.055Z,5.22
2022-12-08T12:09:11.111Z,2.63
2022-12-08T12:12:11.678Z,3.08
2022-12-08T12:14:41.760Z,2.43
2022-12-08T12:17:23.410Z,2.63
2022-12-08T12:20:29.786Z,3.13
2022-12-08T12:23:34.994Z,3.70
2022-12-08T12:26:41.437Z,3.17
2022-12-08T12:29:50.946Z,3.60
2022-12-08T12:33:01.731Z,2.70
2022-12-08T12:36:17.228Z,2.87
2022-12-08T12:39:09.428Z,2.50
2022-12-08T12:41:36.155Z,2.67
2022-12-08T12:44:15.451Z,2.63
2022-12-08T12:46:53.511Z,2.57
2022-12-08T12:49:55.690Z,3.27
2022-12-08T12:52:36.495Z,3.00
2022-12-08T12:55:03.109Z,2.50
2022-12-08T12:57:37.126Z,2.47
2022-12-08T13:00:04.095Z,3.30
2022-12-08T13:02:31.394Z,2.43
2022-12-08T13:04:58.003Z,2.40
2022-12-08T13:07:27.123Z,2.42
2022-12-08T13:09:57.065Z,2.40
2022-12-08T13:12:24.641Z,2.20
2022-12-08T13:14:51.929Z,1.90
2022-12-08T13:17:27.269Z,1.70
2022-12-08T13:20:00.179Z,2.03
2022-12-08T13:22:45.207Z,2.17
2022-12-08T13:25:36.527Z,2.07
2022-12-08T13:28:09.067Z,2.37
2022-12-08T13:30:52.865Z,2.65
2022-12-08T13:33:30.286Z,1.90
2022-12-08T13:36:02.182Z,2.13
2022-12-08T13:38:31.484Z,2.43
2022-12-08T13:41:01.271Z,2.17
2022-12-08T13:58:16.413Z,1.30
2022-12-08T14:00:43.319Z,1.57
2022-12-08T14:03:11.681Z,1.67
2022-12-08T14:06:11.033Z,1.60
2022-12-08T14:08:58.932Z,1.47
2022-12-08T14:11:39.129Z,1.63
2022-12-08T14:14:32.810Z,1.73
2022-12-08T14:17:12.143Z,1.33
2022-12-08T14:19:44.680Z,1.37
2022-12-08T14:22:18.877Z,1.40
2022-12-08T14:24:56.446Z,3.20
2022-12-08T14:27:26.262Z,1.63
2022-12-08T14:30:08.925Z,3.37
2022-12-08T14:32:41.026Z,1.30
2022-12-08T14:35:08.260Z,6.40
2022-12-08T14:37:39.414Z,1.70
2022-12-08T14:40:07.514Z,12.43
2022-12-08T14:42:42.438Z,2.13
2022-12-08T14:45:11.148Z,1.27
2022-12-08T14:47:37.634Z,1.20
2022-12-08T14:50:05.808Z,1.10
2022-12-08T14:52:32.660Z,1.47
2022-12-08T14:54:59.292Z,2.10
2022-12-08T14:57:31.403Z,1.17
2022-12-08T14:59:58.113Z,2.10
2022-12-08T15:02:26.573Z,1.80
2022-12-08T15:04:59.367Z,1.47
2022-12-08T15:07:30.427Z,1.80
2022-12-08T15:10:07.949Z,2.03
2022-12-08T15:12:34.711Z,1.70
2022-12-08T15:15:10.643Z,1.83
2022-12-08T15:17:43.046Z,1.37
2022-12-08T15:20:34.561Z,2.00
2022-12-08T15:23:01.754Z,2.60
2022-12-08T15:25:28.332Z,7.57
2022-12-08T15:27:56.468Z,3.87
2022-12-08T15:30:23.488Z,2.13
2022-12-08T15:32:52.509Z,1.90
2022-12-08T15:35:19.164Z,1.80
2022-12-08T15:37:46.555Z,2.23
2022-12-08T15:40:23.165Z,2.05
2022-12-08T15:42:49.671Z,1.83
2022-12-08T15:45:16.972Z,1.92
2022-12-08T15:47:44.536Z,2.10
2022-12-08T15:50:21.272Z,1.88
2022-12-08T15:52:48.274Z,2.83
2022-12-08T15:55:15.559Z,2.57
2022-12-08T15:58:44.592Z,2.60
2022-12-08T16:03:51.667Z,3.10
2022-12-08T16:06:57.607Z,3.38
2022-12-08T16:09:11.097Z,2.63
2022-12-08T16:12:06.346Z,2.35
2022-12-08T16:15:39.766Z,3.15
2022-12-08T16:17:20.593Z,2.90
2022-12-08T16:19:47.044Z,3.60
2022-12-08T16:23:07.626Z,3.23
2022-12-08T16:25:27.326Z,3.03
2022-12-08T16:28:03.032Z,3.08
2022-12-08T16:30:35.264Z,2.90
2022-12-08T16:33:01.866Z,2.80
2022-12-08T16:35:28.493Z,3.50
2022-12-08T16:37:55.205Z,3.85
2022-12-08T16:40:21.987Z,3.40
2022-12-08T16:42:50.183Z,3.20
2022-12-08T16:45:16.896Z,3.50
2022-12-08T16:47:49.560Z,4.22
2022-12-08T16:50:18.493Z,3.90
2022-12-08T16:52:45.163Z,4.53
2022-12-08T16:55:13.390Z,4.40
2022-12-08T16:57:40.136Z,5.53
2022-12-08T17:00:08.187Z,5.18
2022-12-08T17:02:35.334Z,4.70
2022-12-08T17:05:01.864Z,5.95
2022-12-08T17:07:28.351Z,6.30
2022-12-08T17:09:55.146Z,7.10
2022-12-08T17:12:21.792Z,7.35
2022-12-08T17:14:48.294Z,6.75
2022-12-08T17:17:14.954Z,5.70
2022-12-08T17:19:41.442Z,4.88
2022-12-08T17:22:07.938Z,4.70
2022-12-08T17:24:34.599Z,4.43
2022-12-08T17:27:04.476Z,5.32
2022-12-08T17:29:31.970Z,5.20
2022-12-08T17:31:59.659Z,5.05
2022-12-08T17:34:26.170Z,4.15
2022-12-08T17:36:52.732Z,3.28
2022-12-08T17:39:19.740Z,3.45
2022-12-08T17:41:46.583Z,3.25
2022-12-08T17:44:14.270Z,3.33
2022-12-08T17:46:43.434Z,3.40
2022-12-08T17:49:14.853Z,3.75
2022-12-08T17:51:41.631Z,3.05
2022-12-08T17:54:08.384Z,3.25
2022-12-08T17:56:34.903Z,3.50
2022-12-08T17:59:02.697Z,3.45
2022-12-08T18:02:09.214Z,3.80
2022-12-08T18:08:49.648Z,6.32
2022-12-08T18:11:56.158Z,4.03
2022-12-08T18:15:02.556Z,3.30
2022-12-08T18:21:41.192Z,4.10
2022-12-08T18:24:08.611Z,5.53
2022-12-08T18:27:15.224Z,5.35
2022-12-08T18:30:21.568Z,5.28
2022-12-08T18:37:00.354Z,4.65
2022-12-08T18:40:06.878Z,4.25
2022-12-08T18:42:33.825Z,4.55
2022-12-08T18:45:04.289Z,3.60
2022-12-08T18:47:31.872Z,3.55
2022-12-08T18:49:59.144Z,4.05
2022-12-08T18:52:31.713Z,4.50
2022-12-08T18:55:06.430Z,4.68
2022-12-08T18:57:33.514Z,5.25
2022-12-08T19:00:00.001Z,5.15
2022-12-08T19:02:26.608Z,4.55
2022-12-08T19:04:55.531Z,4.35
2022-12-08T19:07:22.073Z,4.07
2022-12-08T19:09:48.577Z,4.60
2022-12-08T19:12:15.131Z,5.30
2022-12-08T19:14:41.690Z,5.63
2022-12-08T19:17:08.654Z,5.70
2022-12-08T19:19:35.484Z,5.15
2022-12-08T19:22:02.073Z,5.63
2022-12-08T19:24:28.980Z,5.40
2022-12-08T19:26:55.546Z,4.40
2022-12-08T19:29:22.033Z,4.30
2022-12-08T19:31:48.763Z,4.30
2022-12-08T19:34:15.712Z,4.00
2022-12-08T19:37:22.166Z,5.28
2022-12-08T19:40:27.562Z,15.45
2022-12-08T19:43:12.476Z,10.10
2022-12-08T19:45:39.150Z,8.95
2022-12-08T19:48:05.814Z,12.10
2022-12-08T19:50:38.916Z,14.02
2022-12-08T19:53:07.399Z,12.18
2022-12-08T19:55:34.104Z,11.23
2022-12-08T19:58:02.011Z,8.40
2022-12-08T20:00:29.737Z,8.00
2022-12-08T20:02:56.433Z,12.13
2022-12-08T20:05:23.419Z,12.07
2022-12-08T20:07:50.384Z,9.23
2022-12-08T20:10:22.160Z,9.85
2022-12-08T20:12:48.800Z,7.38
2022-12-08T20:15:15.426Z,7.97
2022-12-08T20:17:42.254Z,7.00
2022-12-08T20:20:09.973Z,9.45
2022-12-08T20:22:37.016Z,11.02
2022-12-08T20:25:03.625Z,13.30
2022-12-08T20:27:30.248Z,9.13
2022-12-08T20:29:56.942Z,8.90
2022-12-08T20:32:23.454Z,8.55
2022-12-08T20:34:50.120Z,9.57
2022-12-08T20:37:16.987Z,8.85
2022-12-08T20:39:43.521Z,9.80
2022-12-08T20:42:12.858Z,8.93
2022-12-08T20:44:43.663Z,9.48
2022-12-08T20:47:10.743Z,10.77
2022-12-08T20:49:37.386Z,10.75
2022-12-08T20:52:04.650Z,10.70
2022-12-08T20:54:31.335Z,10.75
2022-12-08T20:56:58.175Z,10.20
2022-12-08T20:59:26.467Z,9.50
2022-12-08T21:01:53.412Z,9.00
2022-12-08T21:04:20.742Z,8.88
2022-12-08T21:06:47.798Z,10.73
2022-12-08T21:09:14.509Z,10.88
2022-12-08T21:11:41.271Z,10.18
2022-12-08T21:14:08.071Z,10.43
2022-12-08T21:16:34.759Z,13.05
2022-12-08T21:19:01.489Z,13.02
2022-12-08T21:21:28.287Z,11.65
2022-12-08T21:23:54.849Z,14.95
2022-12-08T21:26:25.954Z,22.17
2022-12-08T21:28:54.836Z,21.98
2022-12-08T21:31:22.017Z,21.73
2022-12-08T21:33:49.210Z,19.27
2022-12-08T21:36:18.842Z,27.30
2022-12-08T21:38:46.283Z,25.65
2022-12-08T21:41:14.206Z,26.92
2022-12-08T21:43:41.432Z,22.25
2022-12-08T21:46:14.166Z,23.83
2022-12-08T21:48:40.878Z,26.08
2022-12-08T21:51:07.705Z,23.77
2022-12-08T21:53:34.318Z,9.38
2022-12-08T21:56:00.850Z,12.20
2022-12-08T21:58:28.627Z,10.65
2022-12-08T22:00:55.192Z,11.65
2022-12-08T22:03:22.027Z,11.63
2022-12-08T22:05:48.800Z,10.15
2022-12-08T22:08:15.508Z,10.07
2022-12-08T22:11:22.424Z,10.68
2022-12-08T22:14:28.791Z,10.02
2022-12-08T22:17:35.557Z,10.02
2022-12-08T22:23:45.951Z,8.88
2022-12-08T22:26:12.651Z,8.13
2022-12-08T22:29:19.253Z,9.18
2022-12-08T22:31:45.810Z,9.23
2022-12-08T22:34:52.291Z,9.27
2022-12-08T22:37:58.633Z,9.13
2022-12-08T22:43:57.271Z,9.43
2022-12-08T22:47:03.834Z,10.13
2022-12-08T22:50:10.802Z,9.35
2022-12-08T22:52:37.942Z,9.10
2022-12-08T22:55:44.749Z,9.27
2022-12-08T22:58:11.883Z,8.95
2022-12-08T23:00:38.976Z,7.95
2022-12-08T23:03:06.422Z,8.00
2022-12-08T23:05:34.413Z,8.20
2022-12-08T23:08:01.508Z,7.95
2022-12-08T23:10:28.858Z,10.07
2022-12-08T23:12:58.041Z,10.52
2022-12-08T23:15:29.292Z,9.38
2022-12-08T23:17:56.171Z,9.80
2022-12-08T23:20:22.943Z,9.40
2022-12-08T23:22:49.450Z,11.93
2022-12-08T23:25:18.556Z,11.25
2022-12-08T23:27:46.044Z,10.73
2022-12-08T23:30:13.147Z,9.95
2022-12-08T23:32:40.039Z,10.52
2022-12-08T23:35:07.520Z,12.05
2022-12-08T23:37:34.305Z,11.23
2022-12-08T23:40:01.025Z,11.65
2022-12-08T23:42:28.863Z,10.80
2022-12-08T23:44:55.627Z,11.65
2022-12-08T23:47:22.526Z,11.68
2022-12-08T23:49:49.201Z,11.02
2022-12-08T23:52:16.031Z,10.48
2022-12-08T23:54:42.770Z,9.80
2022-12-08T23:57:09.465Z,10.93
2022-12-08T23:59:35.994Z,9.98
